Flight Track Log - Related Links

Times and Time Zones

All times are in EST time to prevent confusion due to time zone crossing. See the FIN666 flight status page for this flight to view local times or setup timezone preferences in your user account.

Time Position Orientation Groundspeed Altitude Reporting Facility
EST Latitude Longitude Course Direction KTS MPH feet Rate Location/Type
Fri 07:22:00 AM 55.9296 13.3027 49° Northeast  Level Estimated
Fri 07:23:00 AM 56.0070 13.4660 50° Northeast  Level Estimated
Fri 07:24:00 AM 56.0842 13.6299 50° Northeast  Level Estimated
Fri 07:25:00 AM 56.1612 13.7945 50° Northeast  Level Estimated
Fri 07:26:00 AM 56.2379 13.9598 50° Northeast  Level Estimated
Fri 07:27:00 AM 56.3145 14.1257 50° Northeast  Level Estimated
Fri 07:28:00 AM 56.3931 14.2975 50° Northeast  Level Estimated
Fri 07:29:00 AM 56.4715 14.4699 50° Northeast  Level Estimated
Fri 07:30:00 AM 56.5497 14.6431 51° Northeast  Level Estimated
Fri 07:31:00 AM 56.6276 14.8169 51° Northeast  Level Estimated
Fri 07:32:00 AM 56.7053 14.9915 51° Northeast  Level Estimated
Fri 07:33:00 AM 56.7827 15.1668 51° Northeast  Level Estimated
Fri 07:34:00 AM 56.8599 15.3429 51° Northeast  Level Estimated
Fri 07:35:00 AM 56.9369 15.5196 51° Northeast  Level Estimated
Fri 07:36:00 AM 57.0136 15.6971 52° Northeast  Level Estimated
Fri 07:37:00 AM 57.0900 15.8753 52° Northeast  Level Estimated
Fri 07:38:00 AM 57.1662 16.0543 52° Northeast  Level Estimated
Fri 07:39:00 AM 57.2421 16.2340 52° Northeast  Level Estimated
Fri 07:40:00 AM 57.3178 16.4144 52° Northeast  Level Estimated
Fri 07:41:00 AM 57.3932 16.5956 52° Northeast  Level Estimated
Fri 07:42:00 AM 57.4683 16.7776 52° Northeast  Level Estimated
Fri 07:43:00 AM 57.5432 16.9602 53° Northeast  Level Estimated
Fri 07:44:00 AM 57.6179 17.1437 53° Northeast  Level Estimated
Fri 07:45:00 AM 57.6922 17.3279 53° Northeast  Level Estimated
Fri 07:46:00 AM 57.7663 17.5128 53° Northeast  Level Estimated
Fri 07:47:00 AM 57.8401 17.6985 53° Northeast  Level Estimated
Fri 07:48:00 AM 57.9137 17.8850 53° Northeast  Level Estimated
Fri 07:49:00 AM 57.9869 18.0722 54° Northeast  Level Estimated
Fri 07:50:00 AM 58.0600 18.2602 54° Northeast  Level Estimated
Fri 07:51:00 AM 58.1327 18.4489 54° Northeast  Level Estimated
Fri 07:52:00 AM 58.2051 18.6384 54° Northeast  Level Estimated
Fri 07:53:00 AM 58.2773 18.8287 54° Northeast  Level Estimated
Fri 07:54:00 AM 58.3491 19.0198 54° Northeast  Level Estimated
Fri 07:55:00 AM 58.4207 19.2117 54° Northeast  Level Estimated
Fri 07:56:00 AM 58.4920 19.4043 55° Northeast  Level Estimated
Fri 07:57:00 AM 58.5630 19.5977 55° Northeast  Level Estimated
Fri 07:58:00 AM 58.6338 19.7919 55° Northeast  Level Estimated
Fri 07:59:00 AM 58.7042 19.9869 55° Northeast  Level Estimated
Fri 08:00:00 AM 58.7743 20.1827 55° Northeast  Level Estimated
Fri 08:01:00 AM 58.8441 20.3792 55° Northeast  Level Estimated
Fri 08:02:00 AM 58.9137 20.5766 56° Northeast  Level Estimated
Fri 08:03:00 AM 58.9829 20.7747 56° Northeast  Level Estimated
Fri 08:04:00 AM 59.0518 20.9737 56° Northeast  Level Estimated
Fri 08:05:00 AM 59.1204 21.1734 56° Northeast  Level Estimated
Fri 08:06:00 AM 59.1888 21.3740 56° Northeast  Level Estimated
Fri 08:07:00 AM 59.2567 21.5753 56° Northeast  Level Estimated
Fri 08:08:00 AM 59.3244 21.7775 57° Northeast  Level Estimated
Fri 08:09:00 AM 59.3918 21.9804 57° Northeast  Level Estimated
Fri 08:10:00 AM 59.4589 22.1842 57° Northeast  Level Estimated
Fri 08:11:00 AM 59.5256 22.3888 57° Northeast  Level Estimated
Fri 08:12:00 AM 59.5920 22.5941 57° Northeast  Level Estimated
Fri 08:13:00 AM 59.6581 22.8003 58° Northeast  Level Estimated
Fri 08:14:00 AM 59.7239 23.0073 58° Northeast  Level Estimated
Fri 08:15:00 AM 59.7893 23.2152 58° Northeast  Level Estimated
Fri 08:16:00 AM 59.8545 23.4238 58° Northeast  Level Estimated
Fri 08:17:00 AM 59.9192 23.6332 58° Northeast  Level Estimated
Fri 08:18:00 AM 59.9837 23.8435 58° Northeast  Level Estimated
Fri 08:19:00 AM 60.0478 24.0546 59° Northeast  Level Estimated
Fri 08:20:00 AM 60.1116 24.2665 59° Northeast  Level Estimated
Fri 08:21:00 AM 60.1750 24.4792 59° Northeast  Level Estimated
Fri 08:22:00 AM 60.2381 24.6927 59° Northeast  Level Estimated
Fri 08:23:00 AM 60.3009 24.9071 59° Northeast  Level Estimated
Fri 08:24:00 AM 60.3172 24.9633 60° Northeast  Level Estimated
Fri 08:25:00 AM 60.3172 24.9633 37° Northeast  Level Estimated
Fri 08:26:00 AM 60.3172 24.9633 37° Northeast  Level Estimated
Fri 08:27:00 AM 60.3172 24.9633 37° Northeast  Level Estimated
Fri 08:28:00 AM 60.3172 24.9633 37° Northeast  Level Estimated
Fri 08:29:00 AM 60.3172 24.9633 37° Northeast  Level Estimated
Fri 08:30:00 AM 60.3172 24.9633 37° Northeast  Level Estimated
Fri 08:31:00 AM 60.3172 24.9633 37° Northeast  Level Estimated
Fri 08:32:00 AM 60.3172 24.9633 37° Northeast  Level Estimated
Fri 08:33:00 AM 60.3172 24.9633 37° Northeast  Level Estimated
Fri 08:34:00 AM 60.3172 24.9633 37° Northeast  Level Estimated
Fri 08:35:00 AM 60.3172 24.9633 37° Northeast  Level Estimated
Fri 08:36:00 AM 60.3172 24.9633 37° Northeast  Level Estimated
Fri 08:37:00 AM 60.3172 24.9633 37° Northeast  Level Estimated
Fri 08:38:00 AM 60.3172 24.9633 37° Northeast  Level Estimated

Login

Don't have an account? Register now (free) for customized features, flight alerts, and more!